createdAt,value
2023-11-18T00:01:56.127Z,8.60
2023-11-18T00:04:26.485Z,8.30
2023-11-18T00:06:56.128Z,7.90
2023-11-18T00:09:26.184Z,7.80
2023-11-18T00:11:55.908Z,8.00
2023-11-18T00:14:25.707Z,8.00
2023-11-18T00:16:56.658Z,7.90
2023-11-18T00:19:26.302Z,7.80
2023-11-18T00:21:56.260Z,8.10
2023-11-18T00:24:26.374Z,8.10
2023-11-18T00:26:56.704Z,8.10
2023-11-18T00:29:27.031Z,8.20
2023-11-18T00:31:58.413Z,8.20
2023-11-18T00:34:28.416Z,8.00
2023-11-18T00:36:58.973Z,8.30
2023-11-18T00:39:30.976Z,8.30
2023-11-18T00:42:00.807Z,7.80
2023-11-18T00:44:30.297Z,7.80
2023-11-18T00:47:02.373Z,7.90
2023-11-18T00:49:32.467Z,7.70
2023-11-18T00:52:04.959Z,8.00
2023-11-18T00:54:35.467Z,8.10
2023-11-18T00:57:05.310Z,8.10
2023-11-18T00:59:35.519Z,8.10
2023-11-18T01:02:06.976Z,8.10
2023-11-18T01:04:37.077Z,7.90
2023-11-18T01:07:07.031Z,7.90
2023-11-18T01:09:40.348Z,7.70
2023-11-18T01:12:11.383Z,7.50
2023-11-18T01:14:43.316Z,7.80
2023-11-18T01:17:15.361Z,7.70
2023-11-18T01:19:45.834Z,7.80
2023-11-18T01:22:16.115Z,8.20
2023-11-18T01:24:45.826Z,8.00
2023-11-18T01:27:15.641Z,7.70
2023-11-18T01:29:46.180Z,7.60
2023-11-18T01:32:20.611Z,7.40
2023-11-18T01:34:51.992Z,7.30
2023-11-18T01:37:23.492Z,7.40
2023-11-18T01:39:54.132Z,7.60
2023-11-18T01:42:23.906Z,7.50
2023-11-18T01:44:54.251Z,7.90
2023-11-18T01:47:25.646Z,7.60
2023-11-18T01:49:56.660Z,7.40
2023-11-18T01:52:27.901Z,7.40
2023-11-18T01:54:58.746Z,7.50
2023-11-18T01:57:29.269Z,7.40
2023-11-18T01:59:59.983Z,7.60
2023-11-18T02:02:31.979Z,7.80
2023-11-18T02:05:03.128Z,7.50
2023-11-18T02:07:33.532Z,7.40
2023-11-18T02:10:04.036Z,7.30
2023-11-18T02:12:42.771Z,7.40
2023-11-18T02:15:14.415Z,7.80
2023-11-18T02:17:48.445Z,8.00
2023-11-18T02:20:22.596Z,7.80
2023-11-18T02:22:54.454Z,7.60
2023-11-18T02:25:30.344Z,7.50
2023-11-18T02:28:01.715Z,7.40
2023-11-18T02:30:32.466Z,7.40
2023-11-18T02:33:07.187Z,7.30
2023-11-18T02:35:44.635Z,7.30
2023-11-18T02:38:15.699Z,7.40
2023-11-18T02:40:46.887Z,7.40
2023-11-18T02:43:19.526Z,7.30
2023-11-18T02:45:51.399Z,7.50
2023-11-18T02:48:21.511Z,7.60
2023-11-18T02:50:51.925Z,7.60
2023-11-18T02:53:22.353Z,7.70
2023-11-18T02:55:53.529Z,8.00
2023-11-18T02:58:24.843Z,7.80
2023-11-18T03:00:55.281Z,7.80
2023-11-18T03:03:27.518Z,7.90
2023-11-18T03:05:57.550Z,7.70
2023-11-18T03:08:30.260Z,8.10
2023-11-18T03:11:01.420Z,7.80
2023-11-18T03:13:34.190Z,7.90
2023-11-18T03:16:05.929Z,7.80
2023-11-18T03:18:41.075Z,7.80
2023-11-18T03:21:15.283Z,7.70
2023-11-18T03:23:47.026Z,7.60
2023-11-18T03:26:16.948Z,7.70
2023-11-18T03:28:48.398Z,7.60
2023-11-18T03:31:18.569Z,7.20
2023-11-18T03:33:48.333Z,7.50
2023-11-18T03:36:19.355Z,7.50
2023-11-18T03:38:49.697Z,7.50
2023-11-18T03:41:19.607Z,7.60
2023-11-18T03:43:51.591Z,7.40
2023-11-18T03:46:21.311Z,7.40
2023-11-18T03:48:51.175Z,7.20
2023-11-18T03:51:20.897Z,7.50
2023-11-18T03:53:50.708Z,7.60
2023-11-18T03:56:21.323Z,7.70
2023-11-18T03:58:52.707Z,7.70
2023-11-18T04:01:24.365Z,7.70
2023-11-18T04:03:54.266Z,7.70
2023-11-18T04:06:25.901Z,7.60
2023-11-18T04:08:55.952Z,7.60
2023-11-18T04:11:25.835Z,7.50
2023-11-18T04:13:56.685Z,7.40
2023-11-18T04:16:26.948Z,7.50
2023-11-18T04:18:57.628Z,7.60
2023-11-18T04:21:27.748Z,7.40
2023-11-18T04:23:57.347Z,7.40
2023-11-18T04:26:27.272Z,7.50
2023-11-18T04:28:58.781Z,7.70
2023-11-18T04:31:29.552Z,7.60
2023-11-18T04:33:59.571Z,7.50
2023-11-18T04:36:30.327Z,7.40
2023-11-18T04:39:01.036Z,7.50
2023-11-18T04:41:32.985Z,7.50
2023-11-18T04:44:04.685Z,7.20
2023-11-18T04:46:35.694Z,6.20
2023-11-18T04:49:07.128Z,6.40
2023-11-18T04:51:37.164Z,6.40
2023-11-18T04:54:09.536Z,6.30
2023-11-18T04:56:39.549Z,6.00
2023-11-18T04:59:11.239Z,6.20
2023-11-18T05:01:41.196Z,6.10
2023-11-18T05:04:14.065Z,6.30
2023-11-18T05:06:45.045Z,6.40
2023-11-18T05:09:17.733Z,6.10
2023-11-18T05:11:47.625Z,6.40
2023-11-18T05:14:18.924Z,6.10
2023-11-18T05:16:48.715Z,6.10
2023-11-18T05:19:18.505Z,6.40
2023-11-18T05:21:51.226Z,6.20
2023-11-18T05:24:20.985Z,5.70
2023-11-18T05:26:50.909Z,5.70
2023-11-18T05:29:22.662Z,6.00
2023-11-18T05:31:54.035Z,6.00
2023-11-18T05:34:24.126Z,6.10
2023-11-18T05:36:56.600Z,6.10
2023-11-18T05:39:29.495Z,6.10
2023-11-18T05:41:59.704Z,5.80
2023-11-18T05:44:39.036Z,6.00
2023-11-18T05:47:13.082Z,6.00
2023-11-18T05:49:42.673Z,6.20
2023-11-18T05:52:13.297Z,6.00
2023-11-18T05:54:43.396Z,5.80
2023-11-18T05:57:13.734Z,6.10
2023-11-18T05:59:45.485Z,6.00
2023-11-18T06:02:19.908Z,5.90
2023-11-18T06:04:50.947Z,5.60
2023-11-18T06:07:21.282Z,5.30
2023-11-18T06:09:51.386Z,5.20
2023-11-18T06:12:21.005Z,5.50
2023-11-18T06:14:52.831Z,5.80
2023-11-18T06:17:23.228Z,5.50
2023-11-18T06:19:53.021Z,5.30
2023-11-18T06:22:25.811Z,5.30
2023-11-18T06:24:56.205Z,5.70
2023-11-18T06:27:26.131Z,5.80
2023-11-18T06:30:10.780Z,5.50
2023-11-18T06:32:43.991Z,5.50
2023-11-18T06:35:16.305Z,5.90
2023-11-18T06:37:46.271Z,5.60
2023-11-18T06:40:20.459Z,5.60
2023-11-18T06:42:50.381Z,5.80
2023-11-18T06:45:23.567Z,6.10
2023-11-18T06:47:53.296Z,6.20
2023-11-18T06:50:26.056Z,6.40
2023-11-18T06:52:55.801Z,6.60
2023-11-18T06:55:25.286Z,6.60
2023-11-18T06:57:55.367Z,6.20
2023-11-18T07:00:29.444Z,6.10
2023-11-18T07:02:59.306Z,5.90
2023-11-18T07:05:30.416Z,6.40
2023-11-18T07:08:00.433Z,6.40
2023-11-18T07:10:29.855Z,6.30
2023-11-18T07:13:01.228Z,6.40
2023-11-18T07:15:33.111Z,6.40
2023-11-18T07:18:04.971Z,6.50
2023-11-18T07:20:34.759Z,6.80
2023-11-18T07:23:04.392Z,7.10
2023-11-18T07:25:35.524Z,7.00
2023-11-18T07:28:06.764Z,7.20
2023-11-18T07:30:38.607Z,7.40
2023-11-18T07:33:10.024Z,7.40
2023-11-18T07:35:39.809Z,7.70
2023-11-18T07:38:10.858Z,7.90
2023-11-18T07:40:47.231Z,7.90
2023-11-18T07:43:17.115Z,7.90
2023-11-18T07:45:51.045Z,8.30
2023-11-18T07:48:22.073Z,8.40
2023-11-18T07:50:52.377Z,8.70
2023-11-18T07:53:23.542Z,8.70
2023-11-18T07:55:54.071Z,8.80
2023-11-18T07:58:24.799Z,9.00
2023-11-18T08:03:26.333Z,9.60
2023-11-18T08:05:56.558Z,9.70
2023-11-18T08:08:26.101Z,9.80
2023-11-18T08:10:56.929Z,10.10
2023-11-18T08:13:26.613Z,10.10
2023-11-18T08:15:59.370Z,10.30
2023-11-18T08:18:32.601Z,10.20
2023-11-18T08:21:03.417Z,10.50
2023-11-18T08:23:33.639Z,10.50
2023-11-18T08:26:03.455Z,10.50
2023-11-18T08:28:33.371Z,10.60
2023-11-18T08:31:04.450Z,10.40
2023-11-18T08:33:34.631Z,10.60
2023-11-18T08:36:04.337Z,10.80
2023-11-18T08:38:34.572Z,10.90
2023-11-18T08:41:05.611Z,10.80
2023-11-18T08:43:36.849Z,10.80
2023-11-18T08:46:09.142Z,10.90
2023-11-18T08:48:39.360Z,11.00
2023-11-18T08:51:13.198Z,11.30
2023-11-18T08:53:43.689Z,11.20
2023-11-18T08:56:15.579Z,11.50
2023-11-18T08:58:47.615Z,11.50
2023-11-18T09:01:32.013Z,11.70
2023-11-18T09:04:14.525Z,11.80
2023-11-18T09:06:46.836Z,11.60
2023-11-18T09:11:52.193Z,11.60
2023-11-18T09:14:32.327Z,11.70
2023-11-18T09:17:08.436Z,11.80
2023-11-18T09:19:43.649Z,11.90
2023-11-18T09:22:16.426Z,12.00
2023-11-18T09:24:48.717Z,12.30
2023-11-18T09:27:21.475Z,12.40
2023-11-18T09:29:52.537Z,12.80
2023-11-18T09:32:30.489Z,12.90
2023-11-18T09:35:11.885Z,13.00
2023-11-18T09:37:45.222Z,13.00
2023-11-18T09:40:18.078Z,13.30
2023-11-18T09:42:55.475Z,13.20
2023-11-18T09:45:39.102Z,13.40
2023-11-18T09:50:59.136Z,13.60
2023-11-18T09:53:39.358Z,13.60
2023-11-18T09:56:24.637Z,13.50
2023-11-18T09:59:09.086Z,13.70
2023-11-18T10:01:44.705Z,13.90
2023-11-18T10:04:20.291Z,14.10
2023-11-18T10:06:56.037Z,13.70
2023-11-18T10:09:38.588Z,13.70
2023-11-18T10:12:14.854Z,13.70
2023-11-18T10:14:46.364Z,13.80
2023-11-18T10:17:19.913Z,13.70
2023-11-18T10:19:59.425Z,13.70
2023-11-18T10:22:31.018Z,13.40
2023-11-18T10:25:07.494Z,13.60
2023-11-18T10:27:37.423Z,13.80
2023-11-18T10:30:20.575Z,13.60
2023-11-18T10:33:07.825Z,13.90
2023-11-18T10:35:39.333Z,14.30
2023-11-18T10:38:09.184Z,14.40
2023-11-18T10:40:38.958Z,14.40
2023-11-18T10:43:11.444Z,14.40
2023-11-18T10:45:45.211Z,14.50
2023-11-18T10:48:18.156Z,14.90
2023-11-18T10:50:52.830Z,15.50
2023-11-18T10:53:23.308Z,15.50
2023-11-18T10:55:53.008Z,15.50
2023-11-18T10:58:22.795Z,15.60
2023-11-18T11:00:57.203Z,15.40
2023-11-18T11:03:26.981Z,14.60
2023-11-18T11:05:58.689Z,15.00
2023-11-18T11:08:36.216Z,15.40
2023-11-18T11:11:17.968Z,15.40
2023-11-18T11:13:51.885Z,14.90
2023-11-18T11:16:24.769Z,14.70
2023-11-18T11:18:58.155Z,14.60
2023-11-18T11:21:33.938Z,14.90
2023-11-18T11:24:13.835Z,15.00
2023-11-18T11:26:58.304Z,15.50
2023-11-18T11:29:34.115Z,15.30
2023-11-18T11:32:15.417Z,16.30
2023-11-18T11:34:55.131Z,16.90
2023-11-18T11:37:28.510Z,16.80
2023-11-18T11:40:00.256Z,16.20
2023-11-18T11:42:31.079Z,16.10
2023-11-18T11:45:02.020Z,16.30
2023-11-18T11:47:38.199Z,15.90
2023-11-18T11:50:23.107Z,16.00
2023-11-18T11:53:04.836Z,16.00
2023-11-18T11:55:42.624Z,17.30
2023-11-18T11:58:29.999Z,17.30
2023-11-18T12:01:02.937Z,18.10
2023-11-18T12:03:37.949Z,18.10
2023-11-18T12:06:12.466Z,17.70
2023-11-18T12:08:46.702Z,17.90
2023-11-18T12:11:18.307Z,18.30
2023-11-18T12:14:14.659Z,18.80
2023-11-18T12:17:08.973Z,18.70
2023-11-18T12:19:46.378Z,18.60
2023-11-18T12:22:21.298Z,18.60
2023-11-18T12:25:25.720Z,18.90
2023-11-18T12:28:00.650Z,18.70
2023-11-18T12:31:00.092Z,18.80
2023-11-18T12:33:49.975Z,19.00
2023-11-18T12:36:49.241Z,19.40
2023-11-18T12:39:43.633Z,18.80
2023-11-18T12:42:23.920Z,18.20
2023-11-18T12:45:25.566Z,18.70
2023-11-18T12:48:00.099Z,18.90
2023-11-18T12:50:35.316Z,18.00
2023-11-18T12:53:08.253Z,17.10
2023-11-18T12:55:39.660Z,16.50
2023-11-18T12:58:13.869Z,16.40
2023-11-18T13:00:47.997Z,16.60
2023-11-18T13:03:19.642Z,17.20
2023-11-18T13:05:50.049Z,17.20
2023-11-18T13:08:24.068Z,17.60
2023-11-18T13:10:54.397Z,17.80
2023-11-18T13:13:26.036Z,17.50
2023-11-18T13:15:57.647Z,17.20
2023-11-18T13:18:28.640Z,17.20
2023-11-18T13:21:00.803Z,17.80
2023-11-18T13:23:32.833Z,17.60
2023-11-18T13:26:07.094Z,17.90
2023-11-18T13:28:41.298Z,18.00
2023-11-18T13:31:18.039Z,17.50
2023-11-18T13:33:51.384Z,17.10
2023-11-18T13:36:22.718Z,16.80
2023-11-18T13:38:53.727Z,16.90
2023-11-18T13:41:43.019Z,17.10
2023-11-18T13:44:14.910Z,17.00
2023-11-18T13:46:49.699Z,17.00
2023-11-18T13:49:25.772Z,16.80
2023-11-18T13:52:00.002Z,16.70
2023-11-18T13:54:33.174Z,16.80
2023-11-18T13:57:03.453Z,16.80
2023-11-18T13:59:34.959Z,17.50
2023-11-18T14:02:09.124Z,18.30
2023-11-18T14:04:38.872Z,19.10
2023-11-18T14:07:11.471Z,19.30
2023-11-18T14:09:42.926Z,19.10
2023-11-18T14:12:13.032Z,19.30
2023-11-18T14:14:54.707Z,18.80
2023-11-18T14:17:29.057Z,18.80
2023-11-18T14:20:01.168Z,18.30
2023-11-18T14:22:31.590Z,18.10
2023-11-18T14:25:01.430Z,18.30
2023-11-18T14:27:31.572Z,19.00
2023-11-18T14:30:04.037Z,19.20
2023-11-18T14:32:35.718Z,19.40
2023-11-18T14:35:11.872Z,19.50
2023-11-18T14:37:44.965Z,19.80
2023-11-18T14:40:18.029Z,19.50
2023-11-18T14:42:50.514Z,19.60
2023-11-18T14:45:21.458Z,19.70
2023-11-18T14:47:58.851Z,19.90
2023-11-18T14:50:32.252Z,19.60
2023-11-18T14:53:04.667Z,19.50
2023-11-18T14:55:35.352Z,19.40
2023-11-18T14:58:06.272Z,19.40
2023-11-18T15:00:39.763Z,19.00
2023-11-18T15:03:11.896Z,18.70
2023-11-18T15:05:41.645Z,18.80
2023-11-18T15:08:14.267Z,18.50
2023-11-18T15:10:45.766Z,18.30
2023-11-18T15:13:16.932Z,18.20
2023-11-18T15:15:48.937Z,17.70
2023-11-18T15:18:22.528Z,16.80
2023-11-18T15:20:53.614Z,15.90
2023-11-18T15:23:23.866Z,15.50
2023-11-18T15:25:54.014Z,15.30
2023-11-18T15:28:23.686Z,15.20
2023-11-18T15:30:53.425Z,15.00
2023-11-18T15:33:25.007Z,14.80
2023-11-18T15:35:54.740Z,14.60
2023-11-18T15:40:55.931Z,14.00
2023-11-18T15:43:26.029Z,13.70
2023-11-18T15:45:57.609Z,13.50
2023-11-18T15:48:30.364Z,13.70
2023-11-18T15:51:00.920Z,13.70
2023-11-18T15:53:31.653Z,13.40
2023-11-18T15:56:01.535Z,13.40
2023-11-18T15:58:31.346Z,13.40
2023-11-18T16:01:00.976Z,13.30
2023-11-18T16:03:32.269Z,13.10
2023-11-18T16:06:02.045Z,13.00
2023-11-18T16:08:37.919Z,12.70
2023-11-18T16:11:08.141Z,12.20
2023-11-18T16:13:36.661Z,11.80
2023-11-18T16:16:07.504Z,11.40
2023-11-18T16:18:38.631Z,11.50
2023-11-18T16:21:08.662Z,11.60
2023-11-18T16:23:39.741Z,11.50
2023-11-18T16:26:09.776Z,11.60
2023-11-18T16:28:39.120Z,11.70
2023-11-18T16:31:10.698Z,11.80
2023-11-18T16:33:45.031Z,11.70
2023-11-18T16:36:24.419Z,11.60
2023-11-18T16:38:55.652Z,11.60
2023-11-18T16:41:29.595Z,11.20
2023-11-18T16:44:01.659Z,11.50
2023-11-18T16:46:31.256Z,11.40
2023-11-18T16:49:02.394Z,11.20
2023-11-18T16:51:32.710Z,11.20
2023-11-18T16:54:03.749Z,11.20
2023-11-18T16:56:33.422Z,10.80
2023-11-18T16:59:12.003Z,10.50
2023-11-18T17:01:42.829Z,10.40
2023-11-18T17:04:14.179Z,10.50
2023-11-18T17:06:46.160Z,10.70
2023-11-18T17:09:16.700Z,10.60
2023-11-18T17:11:49.810Z,10.40
2023-11-18T17:14:19.883Z,10.10
2023-11-18T17:16:49.879Z,10.00
2023-11-18T17:19:21.131Z,10.10
2023-11-18T17:21:53.609Z,10.10
2023-11-18T17:24:23.320Z,10.20
2023-11-18T17:26:53.115Z,10.30
2023-11-18T17:29:23.047Z,10.20
2023-11-18T17:31:52.725Z,10.20
2023-11-18T17:34:23.692Z,10.20
2023-11-18T17:36:54.629Z,10.20
2023-11-18T17:39:25.594Z,9.80
2023-11-18T17:42:02.031Z,9.70
2023-11-18T17:44:37.493Z,9.60
2023-11-18T17:47:09.583Z,10.10
2023-11-18T17:49:40.882Z,10.10
2023-11-18T17:52:11.187Z,9.90
2023-11-18T17:54:42.418Z,9.90
2023-11-18T17:57:16.281Z,10.00
2023-11-18T17:59:46.373Z,9.80
2023-11-18T18:02:18.979Z,9.80
2023-11-18T18:04:50.402Z,9.80
2023-11-18T18:07:20.192Z,9.90
2023-11-18T18:09:49.673Z,9.80
2023-11-18T18:12:20.682Z,10.00
2023-11-18T18:14:50.476Z,10.00
2023-11-18T18:17:20.104Z,9.80
2023-11-18T18:19:51.929Z,9.60
2023-11-18T18:22:22.364Z,9.60
2023-11-18T18:24:51.972Z,9.60
2023-11-18T18:27:23.010Z,9.30
2023-11-18T18:29:52.508Z,9.40
2023-11-18T18:32:22.464Z,9.30
2023-11-18T18:34:53.471Z,9.20
2023-11-18T18:37:27.447Z,9.20
2023-11-18T18:39:57.901Z,9.30
2023-11-18T18:42:27.920Z,9.40
2023-11-18T18:44:58.560Z,9.20
2023-11-18T18:47:30.583Z,9.10
2023-11-18T18:50:02.689Z,9.40
2023-11-18T18:52:32.300Z,9.40
2023-11-18T18:55:02.224Z,9.50
2023-11-18T18:57:35.057Z,9.30
2023-11-18T19:00:07.051Z,9.40
2023-11-18T19:02:37.027Z,9.40
2023-11-18T19:05:10.131Z,9.40
2023-11-18T19:07:39.871Z,9.50
2023-11-18T19:10:10.108Z,9.70
2023-11-18T19:12:40.038Z,9.50
2023-11-18T19:15:10.342Z,9.20
2023-11-18T19:17:40.917Z,9.10
2023-11-18T19:20:15.060Z,9.10
2023-11-18T19:22:45.531Z,9.10
2023-11-18T19:25:17.192Z,9.00
2023-11-18T19:27:47.429Z,8.70
2023-11-18T19:30:17.382Z,9.00
2023-11-18T19:32:47.227Z,9.00
2023-11-18T19:35:18.362Z,8.70
2023-11-18T19:37:49.984Z,8.70
2023-11-18T19:40:20.624Z,8.60
2023-11-18T19:42:50.329Z,8.60
2023-11-18T19:45:20.152Z,8.60
2023-11-18T19:47:50.916Z,8.70
2023-11-18T19:52:55.979Z,9.00
2023-11-18T19:55:25.644Z,9.00
2023-11-18T19:57:56.181Z,9.20
2023-11-18T20:00:28.139Z,9.20
2023-11-18T20:02:59.101Z,9.10
2023-11-18T20:05:30.332Z,8.80
2023-11-18T20:08:00.073Z,8.70
2023-11-18T20:10:30.044Z,8.80
2023-11-18T20:13:00.684Z,8.80
2023-11-18T20:15:32.023Z,8.70
2023-11-18T20:18:01.954Z,8.70
2023-11-18T20:20:33.169Z,8.70
2023-11-18T20:23:02.835Z,8.80
2023-11-18T20:25:32.829Z,8.80
2023-11-18T20:28:03.645Z,8.60
2023-11-18T20:30:33.333Z,8.40
2023-11-18T20:33:03.186Z,8.50
2023-11-18T20:35:34.632Z,8.60
2023-11-18T20:38:04.458Z,8.70
2023-11-18T20:40:34.273Z,8.90
2023-11-18T20:43:04.282Z,8.70
2023-11-18T20:45:36.188Z,8.70
2023-11-18T20:48:09.482Z,8.60
2023-11-18T20:50:40.867Z,8.50
2023-11-18T20:53:11.009Z,8.40
2023-11-18T20:55:41.100Z,8.20
2023-11-18T20:58:11.757Z,8.30
2023-11-18T21:00:42.150Z,8.10
2023-11-18T21:03:12.086Z,8.10
2023-11-18T21:05:43.422Z,8.30
2023-11-18T21:08:14.326Z,8.20
2023-11-18T21:10:44.671Z,8.20
2023-11-18T21:13:14.492Z,8.30
2023-11-18T21:15:44.612Z,8.50
2023-11-18T21:18:14.652Z,8.70
2023-11-18T21:20:46.593Z,8.50
2023-11-18T21:23:16.414Z,8.30
2023-11-18T21:25:47.130Z,8.50
2023-11-18T21:28:17.150Z,8.60
2023-11-18T21:30:47.683Z,8.50
2023-11-18T21:33:17.510Z,8.50
2023-11-18T21:35:49.264Z,8.70
2023-11-18T21:38:19.299Z,8.60
2023-11-18T21:40:48.979Z,8.70
2023-11-18T21:43:18.542Z,8.40
2023-11-18T21:45:48.287Z,8.30
2023-11-18T21:48:17.908Z,8.20
2023-11-18T21:50:50.056Z,8.30
2023-11-18T21:53:22.186Z,7.90
2023-11-18T21:55:55.662Z,7.90
2023-11-18T21:58:26.179Z,8.20
2023-11-18T22:00:56.060Z,8.10
2023-11-18T22:03:26.479Z,8.00
2023-11-18T22:05:57.832Z,8.00
2023-11-18T22:08:27.356Z,8.10
2023-11-18T22:10:58.986Z,8.10
2023-11-18T22:13:28.708Z,8.00
2023-11-18T22:15:59.067Z,8.10
2023-11-18T22:18:29.252Z,8.30
2023-11-18T22:21:00.294Z,8.30
2023-11-18T22:23:30.184Z,8.40
2023-11-18T22:26:00.227Z,8.20
2023-11-18T22:28:33.320Z,8.00
2023-11-18T22:31:04.353Z,8.00
2023-11-18T22:33:36.501Z,7.90
2023-11-18T22:36:08.935Z,7.70
2023-11-18T22:38:39.897Z,7.80
2023-11-18T22:41:11.208Z,7.80
2023-11-18T22:43:41.710Z,8.00
2023-11-18T22:46:12.410Z,8.00
2023-11-18T22:48:42.261Z,8.00
2023-11-18T22:51:12.948Z,7.90
2023-11-18T22:53:44.593Z,8.00
2023-11-18T22:56:15.739Z,7.80
2023-11-18T22:58:45.812Z,7.90
2023-11-18T23:01:21.413Z,7.70
2023-11-18T23:03:53.102Z,7.70
2023-11-18T23:06:25.492Z,7.80
2023-11-18T23:08:56.108Z,7.90
2023-11-18T23:11:26.781Z,7.60
2023-11-18T23:13:56.653Z,7.70
2023-11-18T23:16:26.473Z,7.70
2023-11-18T23:18:57.633Z,7.60
2023-11-18T23:21:30.691Z,7.70
2023-11-18T23:24:00.380Z,7.50
2023-11-18T23:26:31.135Z,7.90
2023-11-18T23:29:01.401Z,7.90
2023-11-18T23:31:31.651Z,7.60
2023-11-18T23:34:02.600Z,7.40
2023-11-18T23:36:34.481Z,7.40
2023-11-18T23:39:04.484Z,7.50
2023-11-18T23:41:34.199Z,7.30
2023-11-18T23:44:06.734Z,7.70
2023-11-18T23:46:36.691Z,7.70
2023-11-18T23:49:13.986Z,7.90
2023-11-18T23:51:45.549Z,7.60
2023-11-18T23:54:15.840Z,7.50
2023-11-18T23:56:46.083Z,7.60
2023-11-18T23:59:15.903Z,7.60
